sensor_id;sensor_type;location;lat;lon;timestamp;P1;durP1;ratioP1;P2;durP2;ratioP2
39410;SDS011;26579;43.238;23.124;2024-02-26T00:00:19;10.57;;;6.80;;
39410;SDS011;26579;43.238;23.124;2024-02-26T00:02:44;9.32;;;5.57;;
39410;SDS011;26579;43.238;23.124;2024-02-26T00:05:10;10.13;;;5.72;;
39410;SDS011;26579;43.238;23.124;2024-02-26T00:07:36;10.75;;;6.43;;
39410;SDS011;26579;43.238;23.124;2024-02-26T00:10:01;13.27;;;6.18;;
39410;SDS011;26579;43.238;23.124;2024-02-26T00:12:27;13.73;;;6.97;;
39410;SDS011;26579;43.238;23.124;2024-02-26T00:14:53;12.13;;;6.32;;
39410;SDS011;26579;43.238;23.124;2024-02-26T00:17:18;10.68;;;5.35;;
39410;SDS011;26579;43.238;23.124;2024-02-26T00:19:44;8.70;;;5.60;;
39410;SDS011;26579;43.238;23.124;2024-02-26T00:22:10;7.97;;;4.70;;
39410;SDS011;26579;43.238;23.124;2024-02-26T00:24:35;12.35;;;5.03;;
39410;SDS011;26579;43.238;23.124;2024-02-26T00:27:01;8.82;;;4.57;;
39410;SDS011;26579;43.238;23.124;2024-02-26T00:29:26;5.88;;;4.10;;
39410;SDS011;26579;43.238;23.124;2024-02-26T00:31:52;10.00;;;4.07;;
39410;SDS011;26579;43.238;23.124;2024-02-26T00:34:18;9.05;;;5.07;;
39410;SDS011;26579;43.238;23.124;2024-02-26T00:36:43;11.57;;;6.22;;
39410;SDS011;26579;43.238;23.124;2024-02-26T00:39:09;12.43;;;5.88;;
39410;SDS011;26579;43.238;23.124;2024-02-26T00:41:40;9.70;;;5.60;;
39410;SDS011;26579;43.238;23.124;2024-02-26T00:44:06;10.05;;;5.30;;
39410;SDS011;26579;43.238;23.124;2024-02-26T00:46:32;9.70;;;4.45;;
39410;SDS011;26579;43.238;23.124;2024-02-26T00:48:58;14.68;;;6.43;;
39410;SDS011;26579;43.238;23.124;2024-02-26T00:51:23;9.40;;;5.20;;
39410;SDS011;26579;43.238;23.124;2024-02-26T00:53:49;8.10;;;4.75;;
39410;SDS011;26579;43.238;23.124;2024-02-26T00:56:14;8.07;;;4.53;;
39410;SDS011;26579;43.238;23.124;2024-02-26T00:58:40;8.40;;;4.55;;
39410;SDS011;26579;43.238;23.124;2024-02-26T01:01:06;6.85;;;4.43;;
39410;SDS011;26579;43.238;23.124;2024-02-26T01:03:31;7.45;;;4.03;;
39410;SDS011;26579;43.238;23.124;2024-02-26T01:05:57;9.65;;;4.00;;
39410;SDS011;26579;43.238;23.124;2024-02-26T01:08:22;6.28;;;3.70;;
39410;SDS011;26579;43.238;23.124;2024-02-26T01:10:48;9.77;;;4.35;;
39410;SDS011;26579;43.238;23.124;2024-02-26T01:13:14;14.43;;;4.88;;
39410;SDS011;26579;43.238;23.124;2024-02-26T01:15:39;9.55;;;4.95;;
39410;SDS011;26579;43.238;23.124;2024-02-26T01:18:05;7.03;;;4.65;;
39410;SDS011;26579;43.238;23.124;2024-02-26T01:20:31;10.25;;;4.80;;
39410;SDS011;26579;43.238;23.124;2024-02-26T01:22:56;11.73;;;5.03;;
39410;SDS011;26579;43.238;23.124;2024-02-26T01:25:22;8.45;;;5.03;;
39410;SDS011;26579;43.238;23.124;2024-02-26T01:27:47;7.65;;;4.55;;
39410;SDS011;26579;43.238;23.124;2024-02-26T01:30:13;6.93;;;4.30;;
39410;SDS011;26579;43.238;23.124;2024-02-26T01:32:39;6.18;;;4.05;;
39410;SDS011;26579;43.238;23.124;2024-02-26T01:35:04;10.15;;;4.72;;
39410;SDS011;26579;43.238;23.124;2024-02-26T01:37:30;5.95;;;3.25;;
39410;SDS011;26579;43.238;23.124;2024-02-26T01:39:56;7.97;;;3.80;;
39410;SDS011;26579;43.238;23.124;2024-02-26T01:42:22;10.73;;;4.70;;
39410;SDS011;26579;43.238;23.124;2024-02-26T01:44:47;7.90;;;4.60;;
39410;SDS011;26579;43.238;23.124;2024-02-26T01:47:13;5.20;;;3.83;;
39410;SDS011;26579;43.238;23.124;2024-02-26T01:49:39;6.47;;;4.13;;
39410;SDS011;26579;43.238;23.124;2024-02-26T01:52:05;8.57;;;4.03;;
39410;SDS011;26579;43.238;23.124;2024-02-26T01:54:36;6.95;;;3.70;;
39410;SDS011;26579;43.238;23.124;2024-02-26T01:57:03;6.53;;;3.88;;
39410;SDS011;26579;43.238;23.124;2024-02-26T01:59:30;6.50;;;3.70;;
39410;SDS011;26579;43.238;23.124;2024-02-26T02:01:57;7.60;;;4.32;;
39410;SDS011;26579;43.238;23.124;2024-02-26T02:04:26;12.55;;;6.78;;
39410;SDS011;26579;43.238;23.124;2024-02-26T02:06:51;11.82;;;5.18;;
39410;SDS011;26579;43.238;23.124;2024-02-26T02:09:17;8.80;;;3.88;;
39410;SDS011;26579;43.238;23.124;2024-02-26T02:11:43;8.63;;;4.13;;
39410;SDS011;26579;43.238;23.124;2024-02-26T02:14:09;8.98;;;4.50;;
39410;SDS011;26579;43.238;23.124;2024-02-26T02:16:34;6.10;;;3.50;;
39410;SDS011;26579;43.238;23.124;2024-02-26T02:19:00;8.02;;;4.45;;
39410;SDS011;26579;43.238;23.124;2024-02-26T02:21:26;8.88;;;4.28;;
39410;SDS011;26579;43.238;23.124;2024-02-26T02:23:51;5.55;;;3.42;;
39410;SDS011;26579;43.238;23.124;2024-02-26T02:26:17;6.82;;;3.67;;
39410;SDS011;26579;43.238;23.124;2024-02-26T02:28:43;13.85;;;5.28;;
39410;SDS011;26579;43.238;23.124;2024-02-26T02:31:11;10.57;;;4.30;;
39410;SDS011;26579;43.238;23.124;2024-02-26T02:33:37;7.88;;;4.30;;
39410;SDS011;26579;43.238;23.124;2024-02-26T02:36:03;8.15;;;4.15;;
39410;SDS011;26579;43.238;23.124;2024-02-26T02:38:28;7.18;;;3.47;;
39410;SDS011;26579;43.238;23.124;2024-02-26T02:40:54;4.82;;;3.28;;
39410;SDS011;26579;43.238;23.124;2024-02-26T02:43:20;7.10;;;4.32;;
39410;SDS011;26579;43.238;23.124;2024-02-26T02:45:45;6.97;;;4.47;;
39410;SDS011;26579;43.238;23.124;2024-02-26T02:48:11;7.70;;;3.90;;
39410;SDS011;26579;43.238;23.124;2024-02-26T02:50:37;8.18;;;3.83;;
39410;SDS011;26579;43.238;23.124;2024-02-26T02:53:03;5.85;;;3.80;;
39410;SDS011;26579;43.238;23.124;2024-02-26T02:55:28;7.75;;;3.60;;
39410;SDS011;26579;43.238;23.124;2024-02-26T02:57:54;7.63;;;4.00;;
39410;SDS011;26579;43.238;23.124;2024-02-26T03:00:20;8.85;;;4.22;;
39410;SDS011;26579;43.238;23.124;2024-02-26T03:02:46;9.48;;;4.05;;
39410;SDS011;26579;43.238;23.124;2024-02-26T03:05:11;8.60;;;5.53;;
39410;SDS011;26579;43.238;23.124;2024-02-26T03:07:37;6.88;;;4.00;;
39410;SDS011;26579;43.238;23.124;2024-02-26T03:10:04;9.38;;;4.57;;
39410;SDS011;26579;43.238;23.124;2024-02-26T03:12:30;11.05;;;5.05;;
39410;SDS011;26579;43.238;23.124;2024-02-26T03:14:56;10.85;;;4.68;;
39410;SDS011;26579;43.238;23.124;2024-02-26T03:17:21;10.88;;;4.68;;
39410;SDS011;26579;43.238;23.124;2024-02-26T03:19:47;9.38;;;5.07;;
39410;SDS011;26579;43.238;23.124;2024-02-26T03:22:13;8.20;;;4.57;;
39410;SDS011;26579;43.238;23.124;2024-02-26T03:24:38;13.55;;;5.38;;
39410;SDS011;26579;43.238;23.124;2024-02-26T03:27:04;9.10;;;4.88;;
39410;SDS011;26579;43.238;23.124;2024-02-26T03:29:30;8.93;;;5.78;;
39410;SDS011;26579;43.238;23.124;2024-02-26T03:31:55;16.63;;;8.20;;
39410;SDS011;26579;43.238;23.124;2024-02-26T03:34:21;7.30;;;4.80;;
39410;SDS011;26579;43.238;23.124;2024-02-26T03:36:47;10.70;;;4.72;;
39410;SDS011;26579;43.238;23.124;2024-02-26T03:39:12;12.13;;;5.40;;
39410;SDS011;26579;43.238;23.124;2024-02-26T03:41:38;9.18;;;5.55;;
39410;SDS011;26579;43.238;23.124;2024-02-26T03:44:04;13.55;;;5.68;;
39410;SDS011;26579;43.238;23.124;2024-02-26T03:46:29;18.90;;;6.75;;
39410;SDS011;26579;43.238;23.124;2024-02-26T03:48:55;8.90;;;5.80;;
39410;SDS011;26579;43.238;23.124;2024-02-26T03:51:20;11.55;;;5.25;;
39410;SDS011;26579;43.238;23.124;2024-02-26T03:53:46;12.90;;;6.30;;
39410;SDS011;26579;43.238;23.124;2024-02-26T03:56:12;10.35;;;5.63;;
39410;SDS011;26579;43.238;23.124;2024-02-26T03:58:37;8.57;;;5.47;;
39410;SDS011;26579;43.238;23.124;2024-02-26T04:01:03;14.48;;;7.65;;
39410;SDS011;26579;43.238;23.124;2024-02-26T04:03:29;13.63;;;8.32;;
39410;SDS011;26579;43.238;23.124;2024-02-26T04:05:54;19.92;;;9.73;;
39410;SDS011;26579;43.238;23.124;2024-02-26T04:08:20;20.42;;;11.20;;
39410;SDS011;26579;43.238;23.124;2024-02-26T04:10:45;18.50;;;9.43;;
39410;SDS011;26579;43.238;23.124;2024-02-26T04:13:11;20.13;;;10.02;;
39410;SDS011;26579;43.238;23.124;2024-02-26T04:15:37;15.75;;;9.20;;
39410;SDS011;26579;43.238;23.124;2024-02-26T04:18:02;16.77;;;9.13;;
39410;SDS011;26579;43.238;23.124;2024-02-26T04:20:28;17.75;;;9.38;;
39410;SDS011;26579;43.238;23.124;2024-02-26T04:22:54;19.58;;;10.68;;
39410;SDS011;26579;43.238;23.124;2024-02-26T04:25:19;16.55;;;10.02;;
39410;SDS011;26579;43.238;23.124;2024-02-26T04:27:45;18.38;;;9.90;;
39410;SDS011;26579;43.238;23.124;2024-02-26T04:30:11;11.52;;;8.00;;
39410;SDS011;26579;43.238;23.124;2024-02-26T04:32:37;15.20;;;8.95;;
39410;SDS011;26579;43.238;23.124;2024-02-26T04:35:02;17.75;;;9.40;;
39410;SDS011;26579;43.238;23.124;2024-02-26T04:37:28;20.85;;;9.43;;
39410;SDS011;26579;43.238;23.124;2024-02-26T04:39:54;18.38;;;10.80;;
39410;SDS011;26579;43.238;23.124;2024-02-26T04:42:20;21.73;;;10.93;;
39410;SDS011;26579;43.238;23.124;2024-02-26T04:44:45;19.10;;;9.57;;
39410;SDS011;26579;43.238;23.124;2024-02-26T04:47:11;21.83;;;11.98;;
39410;SDS011;26579;43.238;23.124;2024-02-26T04:49:36;23.85;;;12.13;;
39410;SDS011;26579;43.238;23.124;2024-02-26T04:52:02;24.58;;;12.20;;
39410;SDS011;26579;43.238;23.124;2024-02-26T04:54:28;24.45;;;13.55;;
39410;SDS011;26579;43.238;23.124;2024-02-26T04:56:53;30.38;;;15.70;;
39410;SDS011;26579;43.238;23.124;2024-02-26T04:59:19;26.05;;;14.70;;
39410;SDS011;26579;43.238;23.124;2024-02-26T05:01:45;24.52;;;14.45;;
39410;SDS011;26579;43.238;23.124;2024-02-26T05:04:10;27.40;;;15.25;;
39410;SDS011;26579;43.238;23.124;2024-02-26T05:06:36;33.28;;;18.45;;
39410;SDS011;26579;43.238;23.124;2024-02-26T05:09:02;32.58;;;19.65;;
39410;SDS011;26579;43.238;23.124;2024-02-26T05:11:28;38.63;;;20.02;;
39410;SDS011;26579;43.238;23.124;2024-02-26T05:13:53;38.85;;;22.55;;
39410;SDS011;26579;43.238;23.124;2024-02-26T05:16:19;52.05;;;28.60;;
39410;SDS011;26579;43.238;23.124;2024-02-26T05:18:45;49.17;;;27.65;;
39410;SDS011;26579;43.238;23.124;2024-02-26T05:21:10;49.95;;;28.05;;
39410;SDS011;26579;43.238;23.124;2024-02-26T05:23:36;49.70;;;25.73;;
39410;SDS011;26579;43.238;23.124;2024-02-26T05:26:01;40.03;;;23.38;;
39410;SDS011;26579;43.238;23.124;2024-02-26T05:28:27;32.58;;;18.45;;
39410;SDS011;26579;43.238;23.124;2024-02-26T05:30:53;30.10;;;18.08;;
39410;SDS011;26579;43.238;23.124;2024-02-26T05:33:18;33.75;;;18.85;;
39410;SDS011;26579;43.238;23.124;2024-02-26T05:35:44;33.83;;;18.38;;
39410;SDS011;26579;43.238;23.124;2024-02-26T05:38:09;34.05;;;18.00;;
39410;SDS011;26579;43.238;23.124;2024-02-26T05:40:35;36.45;;;20.45;;
39410;SDS011;26579;43.238;23.124;2024-02-26T05:43:01;35.88;;;18.80;;
39410;SDS011;26579;43.238;23.124;2024-02-26T05:45:26;29.10;;;17.77;;
39410;SDS011;26579;43.238;23.124;2024-02-26T05:47:52;30.08;;;15.88;;
39410;SDS011;26579;43.238;23.124;2024-02-26T05:50:18;27.33;;;15.02;;
39410;SDS011;26579;43.238;23.124;2024-02-26T05:52:43;35.17;;;17.75;;
39410;SDS011;26579;43.238;23.124;2024-02-26T05:55:09;27.67;;;16.45;;
39410;SDS011;26579;43.238;23.124;2024-02-26T05:57:36;26.65;;;15.88;;
39410;SDS011;26579;43.238;23.124;2024-02-26T06:00:02;29.58;;;16.50;;
39410;SDS011;26579;43.238;23.124;2024-02-26T06:02:36;29.77;;;16.77;;
39410;SDS011;26579;43.238;23.124;2024-02-26T06:05:02;32.72;;;19.58;;
39410;SDS011;26579;43.238;23.124;2024-02-26T06:07:28;34.65;;;19.42;;
39410;SDS011;26579;43.238;23.124;2024-02-26T06:09:54;33.95;;;21.13;;
39410;SDS011;26579;43.238;23.124;2024-02-26T06:12:19;40.50;;;23.27;;
39410;SDS011;26579;43.238;23.124;2024-02-26T06:14:45;37.17;;;22.75;;
39410;SDS011;26579;43.238;23.124;2024-02-26T06:17:11;45.35;;;25.90;;
39410;SDS011;26579;43.238;23.124;2024-02-26T06:19:36;51.40;;;24.67;;
39410;SDS011;26579;43.238;23.124;2024-02-26T06:22:02;47.70;;;25.00;;
39410;SDS011;26579;43.238;23.124;2024-02-26T06:24:28;39.90;;;24.27;;
39410;SDS011;26579;43.238;23.124;2024-02-26T06:26:53;48.33;;;26.55;;
39410;SDS011;26579;43.238;23.124;2024-02-26T06:29:19;59.88;;;31.30;;
39410;SDS011;26579;43.238;23.124;2024-02-26T06:31:44;65.43;;;32.38;;
39410;SDS011;26579;43.238;23.124;2024-02-26T06:34:10;40.05;;;22.50;;
39410;SDS011;26579;43.238;23.124;2024-02-26T06:36:36;53.67;;;30.23;;
39410;SDS011;26579;43.238;23.124;2024-02-26T06:39:01;81.28;;;47.15;;
39410;SDS011;26579;43.238;23.124;2024-02-26T06:41:27;51.47;;;32.10;;
39410;SDS011;26579;43.238;23.124;2024-02-26T06:43:55;53.13;;;32.67;;
39410;SDS011;26579;43.238;23.124;2024-02-26T06:46:21;51.20;;;29.70;;
39410;SDS011;26579;43.238;23.124;2024-02-26T06:48:48;44.22;;;26.25;;
39410;SDS011;26579;43.238;23.124;2024-02-26T06:51:14;30.70;;;18.40;;
39410;SDS011;26579;43.238;23.124;2024-02-26T06:53:39;39.35;;;23.92;;
39410;SDS011;26579;43.238;23.124;2024-02-26T06:56:05;49.03;;;28.38;;
39410;SDS011;26579;43.238;23.124;2024-02-26T06:58:31;43.30;;;24.40;;
39410;SDS011;26579;43.238;23.124;2024-02-26T07:00:56;42.83;;;25.52;;
39410;SDS011;26579;43.238;23.124;2024-02-26T07:03:22;52.13;;;23.48;;
39410;SDS011;26579;43.238;23.124;2024-02-26T07:05:48;41.22;;;22.90;;
39410;SDS011;26579;43.238;23.124;2024-02-26T07:08:13;38.47;;;22.15;;
39410;SDS011;26579;43.238;23.124;2024-02-26T07:10:39;41.15;;;23.75;;
39410;SDS011;26579;43.238;23.124;2024-02-26T07:13:04;44.15;;;24.77;;
39410;SDS011;26579;43.238;23.124;2024-02-26T07:15:30;38.83;;;25.52;;
39410;SDS011;26579;43.238;23.124;2024-02-26T07:17:56;40.00;;;23.98;;
39410;SDS011;26579;43.238;23.124;2024-02-26T07:20:22;78.97;;;43.92;;
39410;SDS011;26579;43.238;23.124;2024-02-26T07:22:47;114.88;;;65.07;;
39410;SDS011;26579;43.238;23.124;2024-02-26T07:25:13;79.78;;;48.03;;
39410;SDS011;26579;43.238;23.124;2024-02-26T07:27:39;65.13;;;36.35;;
39410;SDS011;26579;43.238;23.124;2024-02-26T07:30:05;56.47;;;33.50;;
39410;SDS011;26579;43.238;23.124;2024-02-26T07:32:32;55.92;;;34.72;;
39410;SDS011;26579;43.238;23.124;2024-02-26T07:34:57;53.38;;;30.17;;
39410;SDS011;26579;43.238;23.124;2024-02-26T07:37:23;46.00;;;30.02;;
39410;SDS011;26579;43.238;23.124;2024-02-26T07:39:48;54.53;;;33.08;;
39410;SDS011;26579;43.238;23.124;2024-02-26T07:42:14;59.90;;;33.70;;
39410;SDS011;26579;43.238;23.124;2024-02-26T07:44:40;57.90;;;32.50;;
39410;SDS011;26579;43.238;23.124;2024-02-26T07:47:05;46.42;;;23.80;;
39410;SDS011;26579;43.238;23.124;2024-02-26T07:49:31;31.50;;;18.60;;
39410;SDS011;26579;43.238;23.124;2024-02-26T07:51:56;35.35;;;23.25;;
39410;SDS011;26579;43.238;23.124;2024-02-26T07:54:22;33.80;;;19.38;;
39410;SDS011;26579;43.238;23.124;2024-02-26T07:56:48;32.65;;;19.98;;
39410;SDS011;26579;43.238;23.124;2024-02-26T07:59:13;39.33;;;21.80;;
39410;SDS011;26579;43.238;23.124;2024-02-26T08:01:39;30.98;;;19.77;;
39410;SDS011;26579;43.238;23.124;2024-02-26T08:04:04;37.20;;;21.02;;
39410;SDS011;26579;43.238;23.124;2024-02-26T08:06:30;44.53;;;21.27;;
39410;SDS011;26579;43.238;23.124;2024-02-26T08:08:56;36.42;;;22.90;;
39410;SDS011;26579;43.238;23.124;2024-02-26T08:11:21;43.30;;;22.60;;
39410;SDS011;26579;43.238;23.124;2024-02-26T08:13:47;44.00;;;21.23;;
39410;SDS011;26579;43.238;23.124;2024-02-26T08:16:12;28.73;;;16.58;;
39410;SDS011;26579;43.238;23.124;2024-02-26T08:18:38;21.98;;;14.35;;
39410;SDS011;26579;43.238;23.124;2024-02-26T08:21:04;27.75;;;16.90;;
39410;SDS011;26579;43.238;23.124;2024-02-26T08:23:29;25.65;;;15.50;;
39410;SDS011;26579;43.238;23.124;2024-02-26T08:25:55;31.95;;;20.08;;
39410;SDS011;26579;43.238;23.124;2024-02-26T08:28:21;29.50;;;18.02;;
39410;SDS011;26579;43.238;23.124;2024-02-26T08:30:46;29.70;;;16.70;;
39410;SDS011;26579;43.238;23.124;2024-02-26T08:33:12;30.83;;;20.05;;
39410;SDS011;26579;43.238;23.124;2024-02-26T08:35:37;27.17;;;18.40;;
39410;SDS011;26579;43.238;23.124;2024-02-26T08:38:03;36.03;;;21.17;;
39410;SDS011;26579;43.238;23.124;2024-02-26T08:40:29;24.17;;;15.70;;
39410;SDS011;26579;43.238;23.124;2024-02-26T08:42:55;30.67;;;19.33;;
39410;SDS011;26579;43.238;23.124;2024-02-26T08:45:20;26.27;;;17.02;;
39410;SDS011;26579;43.238;23.124;2024-02-26T08:47:46;25.73;;;16.25;;
39410;SDS011;26579;43.238;23.124;2024-02-26T08:50:12;26.45;;;15.80;;
39410;SDS011;26579;43.238;23.124;2024-02-26T08:52:39;28.88;;;16.67;;
39410;SDS011;26579;43.238;23.124;2024-02-26T08:55:04;22.63;;;15.10;;
39410;SDS011;26579;43.238;23.124;2024-02-26T08:57:33;19.00;;;13.00;;
39410;SDS011;26579;43.238;23.124;2024-02-26T08:59:59;20.77;;;13.07;;
39410;SDS011;26579;43.238;23.124;2024-02-26T09:02:25;27.65;;;14.57;;
39410;SDS011;26579;43.238;23.124;2024-02-26T09:04:51;24.92;;;15.57;;
39410;SDS011;26579;43.238;23.124;2024-02-26T09:07:16;31.58;;;15.75;;
39410;SDS011;26579;43.238;23.124;2024-02-26T09:09:42;22.80;;;15.32;;
39410;SDS011;26579;43.238;23.124;2024-02-26T09:12:07;24.98;;;15.57;;
39410;SDS011;26579;43.238;23.124;2024-02-26T09:14:33;27.45;;;17.42;;
39410;SDS011;26579;43.238;23.124;2024-02-26T09:16:59;27.73;;;17.85;;
39410;SDS011;26579;43.238;23.124;2024-02-26T09:19:25;28.02;;;19.25;;
39410;SDS011;26579;43.238;23.124;2024-02-26T09:21:51;29.05;;;17.45;;
39410;SDS011;26579;43.238;23.124;2024-02-26T09:24:17;27.67;;;16.80;;
39410;SDS011;26579;43.238;23.124;2024-02-26T09:26:43;28.15;;;18.80;;
39410;SDS011;26579;43.238;23.124;2024-02-26T09:29:08;28.40;;;17.65;;
39410;SDS011;26579;43.238;23.124;2024-02-26T09:31:34;29.02;;;18.08;;
39410;SDS011;26579;43.238;23.124;2024-02-26T09:34:00;28.65;;;19.15;;
39410;SDS011;26579;43.238;23.124;2024-02-26T09:36:25;25.70;;;17.50;;
39410;SDS011;26579;43.238;23.124;2024-02-26T09:38:51;26.90;;;18.27;;
39410;SDS011;26579;43.238;23.124;2024-02-26T09:41:17;26.60;;;16.15;;
39410;SDS011;26579;43.238;23.124;2024-02-26T09:43:45;30.77;;;20.40;;
39410;SDS011;26579;43.238;23.124;2024-02-26T09:46:11;29.75;;;17.45;;
39410;SDS011;26579;43.238;23.124;2024-02-26T09:48:37;30.45;;;19.45;;
39410;SDS011;26579;43.238;23.124;2024-02-26T09:51:03;35.20;;;19.73;;
39410;SDS011;26579;43.238;23.124;2024-02-26T09:53:30;31.50;;;19.73;;
39410;SDS011;26579;43.238;23.124;2024-02-26T09:55:57;31.17;;;18.95;;
39410;SDS011;26579;43.238;23.124;2024-02-26T09:58:24;32.45;;;19.60;;
39410;SDS011;26579;43.238;23.124;2024-02-26T10:00:53;37.10;;;19.50;;
39410;SDS011;26579;43.238;23.124;2024-02-26T10:03:22;31.35;;;17.48;;
39410;SDS011;26579;43.238;23.124;2024-02-26T10:05:53;29.02;;;16.17;;
39410;SDS011;26579;43.238;23.124;2024-02-26T10:08:19;28.35;;;16.02;;
39410;SDS011;26579;43.238;23.124;2024-02-26T10:10:45;35.72;;;21.17;;
39410;SDS011;26579;43.238;23.124;2024-02-26T10:13:11;43.33;;;25.08;;
39410;SDS011;26579;43.238;23.124;2024-02-26T10:15:36;32.20;;;19.58;;
39410;SDS011;26579;43.238;23.124;2024-02-26T10:18:05;33.17;;;18.48;;
39410;SDS011;26579;43.238;23.124;2024-02-26T10:20:32;32.97;;;19.92;;
39410;SDS011;26579;43.238;23.124;2024-02-26T10:22:58;30.95;;;18.23;;
39410;SDS011;26579;43.238;23.124;2024-02-26T10:25:24;29.58;;;17.90;;
39410;SDS011;26579;43.238;23.124;2024-02-26T10:27:49;32.75;;;18.48;;
39410;SDS011;26579;43.238;23.124;2024-02-26T10:30:22;26.70;;;16.75;;
39410;SDS011;26579;43.238;23.124;2024-02-26T10:32:51;27.48;;;17.70;;
39410;SDS011;26579;43.238;23.124;2024-02-26T10:35:17;25.27;;;15.52;;
39410;SDS011;26579;43.238;23.124;2024-02-26T10:37:43;24.92;;;16.70;;
39410;SDS011;26579;43.238;23.124;2024-02-26T10:40:15;22.95;;;14.98;;
39410;SDS011;26579;43.238;23.124;2024-02-26T10:42:42;21.58;;;14.27;;
39410;SDS011;26579;43.238;23.124;2024-02-26T10:45:09;24.85;;;15.00;;
39410;SDS011;26579;43.238;23.124;2024-02-26T10:47:35;25.20;;;15.15;;
39410;SDS011;26579;43.238;23.124;2024-02-26T10:50:02;24.73;;;14.38;;
39410;SDS011;26579;43.238;23.124;2024-02-26T10:52:33;25.60;;;15.65;;
39410;SDS011;26579;43.238;23.124;2024-02-26T10:55:01;21.73;;;14.35;;
39410;SDS011;26579;43.238;23.124;2024-02-26T10:57:28;31.33;;;18.08;;
39410;SDS011;26579;43.238;23.124;2024-02-26T11:00:02;27.52;;;16.67;;
39410;SDS011;26579;43.238;23.124;2024-02-26T11:02:28;29.15;;;18.63;;
39410;SDS011;26579;43.238;23.124;2024-02-26T11:04:57;24.08;;;15.00;;
39410;SDS011;26579;43.238;23.124;2024-02-26T11:07:24;29.75;;;16.63;;
39410;SDS011;26579;43.238;23.124;2024-02-26T11:09:51;28.35;;;15.75;;
39410;SDS011;26579;43.238;23.124;2024-02-26T11:12:18;25.55;;;14.95;;
39410;SDS011;26579;43.238;23.124;2024-02-26T11:14:46;22.45;;;14.18;;
39410;SDS011;26579;43.238;23.124;2024-02-26T11:17:12;23.98;;;13.88;;
39410;SDS011;26579;43.238;23.124;2024-02-26T11:19:41;24.98;;;15.65;;
39410;SDS011;26579;43.238;23.124;2024-02-26T11:22:08;24.50;;;14.88;;
39410;SDS011;26579;43.238;23.124;2024-02-26T11:24:33;25.75;;;16.58;;
39410;SDS011;26579;43.238;23.124;2024-02-26T11:27:01;31.50;;;17.98;;
39410;SDS011;26579;43.238;23.124;2024-02-26T11:29:33;24.95;;;16.95;;
39410;SDS011;26579;43.238;23.124;2024-02-26T11:32:06;29.30;;;16.38;;
39410;SDS011;26579;43.238;23.124;2024-02-26T11:34:32;41.75;;;23.30;;
39410;SDS011;26579;43.238;23.124;2024-02-26T11:37:08;23.98;;;15.30;;
39410;SDS011;26579;43.238;23.124;2024-02-26T11:39:35;28.52;;;17.13;;
39410;SDS011;26579;43.238;23.124;2024-02-26T11:42:09;32.08;;;18.20;;
39410;SDS011;26579;43.238;23.124;2024-02-26T11:44:38;25.48;;;14.60;;
39410;SDS011;26579;43.238;23.124;2024-02-26T11:49:35;23.30;;;15.25;;
39410;SDS011;26579;43.238;23.124;2024-02-26T11:52:04;19.50;;;12.88;;
39410;SDS011;26579;43.238;23.124;2024-02-26T11:54:51;23.00;;;13.23;;
39410;SDS011;26579;43.238;23.124;2024-02-26T12:05:17;17.98;;;11.35;;
39410;SDS011;26579;43.238;23.124;2024-02-26T12:07:47;18.73;;;12.18;;
39410;SDS011;26579;43.238;23.124;2024-02-26T12:10:15;24.35;;;13.38;;
39410;SDS011;26579;43.238;23.124;2024-02-26T12:12:46;20.42;;;10.90;;
39410;SDS011;26579;43.238;23.124;2024-02-26T12:15:12;22.33;;;14.38;;
39410;SDS011;26579;43.238;23.124;2024-02-26T12:17:40;20.85;;;14.07;;
39410;SDS011;26579;43.238;23.124;2024-02-26T12:20:10;23.83;;;12.88;;
39410;SDS011;26579;43.238;23.124;2024-02-26T12:22:37;25.13;;;11.77;;
39410;SDS011;26579;43.238;23.124;2024-02-26T12:25:05;18.98;;;12.25;;
39410;SDS011;26579;43.238;23.124;2024-02-26T12:27:31;23.20;;;14.40;;
39410;SDS011;26579;43.238;23.124;2024-02-26T12:29:57;23.75;;;14.05;;
39410;SDS011;26579;43.238;23.124;2024-02-26T12:32:22;22.88;;;13.48;;
39410;SDS011;26579;43.238;23.124;2024-02-26T12:34:49;29.17;;;15.02;;
39410;SDS011;26579;43.238;23.124;2024-02-26T12:37:15;32.85;;;15.93;;
39410;SDS011;26579;43.238;23.124;2024-02-26T12:39:41;26.52;;;15.75;;
39410;SDS011;26579;43.238;23.124;2024-02-26T12:42:08;24.55;;;15.35;;
39410;SDS011;26579;43.238;23.124;2024-02-26T12:44:34;23.60;;;15.55;;
39410;SDS011;26579;43.238;23.124;2024-02-26T12:47:00;29.50;;;18.05;;
39410;SDS011;26579;43.238;23.124;2024-02-26T12:49:30;30.55;;;20.08;;
39410;SDS011;26579;43.238;23.124;2024-02-26T12:51:56;31.02;;;16.13;;
39410;SDS011;26579;43.238;23.124;2024-02-26T12:54:22;25.67;;;15.30;;
39410;SDS011;26579;43.238;23.124;2024-02-26T12:56:47;24.27;;;15.82;;
39410;SDS011;26579;43.238;23.124;2024-02-26T12:59:13;29.00;;;17.20;;
39410;SDS011;26579;43.238;23.124;2024-02-26T13:01:42;23.65;;;14.85;;
39410;SDS011;26579;43.238;23.124;2024-02-26T13:04:08;26.10;;;16.58;;
39410;SDS011;26579;43.238;23.124;2024-02-26T13:06:34;27.42;;;14.23;;
39410;SDS011;26579;43.238;23.124;2024-02-26T13:08:59;28.00;;;17.60;;
39410;SDS011;26579;43.238;23.124;2024-02-26T13:11:25;27.77;;;14.00;;
39410;SDS011;26579;43.238;23.124;2024-02-26T13:13:51;23.73;;;13.18;;
39410;SDS011;26579;43.238;23.124;2024-02-26T13:16:17;25.33;;;13.80;;
39410;SDS011;26579;43.238;23.124;2024-02-26T13:18:42;28.40;;;17.52;;
39410;SDS011;26579;43.238;23.124;2024-02-26T13:21:12;27.33;;;15.40;;
39410;SDS011;26579;43.238;23.124;2024-02-26T13:23:42;30.08;;;19.13;;
39410;SDS011;26579;43.238;23.124;2024-02-26T13:26:08;27.30;;;16.65;;
39410;SDS011;26579;43.238;23.124;2024-02-26T13:28:37;32.03;;;18.65;;
39410;SDS011;26579;43.238;23.124;2024-02-26T13:31:03;37.50;;;20.40;;
39410;SDS011;26579;43.238;23.124;2024-02-26T13:33:30;43.65;;;25.17;;
39410;SDS011;26579;43.238;23.124;2024-02-26T13:35:56;30.55;;;17.67;;
39410;SDS011;26579;43.238;23.124;2024-02-26T13:38:22;43.75;;;23.42;;
39410;SDS011;26579;43.238;23.124;2024-02-26T13:40:49;39.80;;;22.85;;
39410;SDS011;26579;43.238;23.124;2024-02-26T13:43:15;30.70;;;18.55;;
39410;SDS011;26579;43.238;23.124;2024-02-26T13:45:41;29.65;;;16.80;;
39410;SDS011;26579;43.238;23.124;2024-02-26T13:48:07;26.52;;;18.20;;
39410;SDS011;26579;43.238;23.124;2024-02-26T13:50:34;27.98;;;15.95;;
39410;SDS011;26579;43.238;23.124;2024-02-26T13:52:59;31.73;;;19.48;;
39410;SDS011;26579;43.238;23.124;2024-02-26T13:55:25;26.98;;;16.85;;
39410;SDS011;26579;43.238;23.124;2024-02-26T13:57:54;30.83;;;17.33;;
39410;SDS011;26579;43.238;23.124;2024-02-26T14:00:21;26.35;;;16.75;;
39410;SDS011;26579;43.238;23.124;2024-02-26T14:02:47;31.67;;;18.98;;
39410;SDS011;26579;43.238;23.124;2024-02-26T14:05:12;34.05;;;22.35;;
39410;SDS011;26579;43.238;23.124;2024-02-26T14:07:38;25.90;;;16.35;;
39410;SDS011;26579;43.238;23.124;2024-02-26T14:10:05;27.45;;;16.95;;
39410;SDS011;26579;43.238;23.124;2024-02-26T14:12:31;32.90;;;18.08;;
39410;SDS011;26579;43.238;23.124;2024-02-26T14:14:56;31.80;;;20.77;;
39410;SDS011;26579;43.238;23.124;2024-02-26T14:17:22;41.70;;;26.38;;
39410;SDS011;26579;43.238;23.124;2024-02-26T14:19:48;30.92;;;20.52;;